CES3271 ZGHA-ZSPD
Flight info
| Callsign | CES3271 |
|---|---|
| Flight time | 1h 42m |
| Altitude | 37100 |
| Route | GUD9X GUDRO W56 IDPOG A581 WHA R343 SASAN SAS81A |
| Aircraft | A320/M-SDE3FGHIRWY/LB1 |
Departure
| Time | 2026-05-04 15:24 |
|---|---|
| Airport | Changsha Huanghua International Airport (ZGHA) |
Arrival
| Time | 2026-05-04 17:06 |
|---|---|
| Airport | Shanghai Pudong International Airport (ZSPD) |
| Time | Latitude | Longitude | Altitude | Speed | Heading |
|---|---|---|---|---|---|
| 2026-05-04 14:56 | 28.19039 | 113.21587 | 214 ft | 0 kts | 266° |
| 2026-05-04 15:07 | 28.19042 | 113.21623 | 215 ft | 2 kts | 271° |
| 2026-05-04 15:07 | 28.19043 | 113.21642 | 216 ft | 2 kts | 264° |
| 2026-05-04 15:07 | 28.19042 | 113.21660 | 216 ft | 2 kts | 319° |
| 2026-05-04 15:07 | 28.19029 | 113.21670 | 218 ft | 2 kts | 354° |
| 2026-05-04 15:08 | 28.19014 | 113.21671 | 220 ft | 2 kts | 344° |
| 2026-05-04 15:08 | 28.19007 | 113.21674 | 223 ft | 0 kts | 21° |
| 2026-05-04 15:09 | 28.19008 | 113.21674 | 223 ft | 0 kts | 12° |
| 2026-05-04 15:14 | 28.19095 | 113.21668 | 214 ft | 23 kts | 1° |
| 2026-05-04 15:14 | 28.19157 | 113.21725 | 217 ft | 7 kts | 91° |
| 2026-05-04 15:14 | 28.19137 | 113.21756 | 216 ft | 4 kts | 137° |
| 2026-05-04 15:15 | 28.19120 | 113.21770 | 214 ft | 2 kts | 155° |
| 2026-05-04 15:15 | 28.19111 | 113.21774 | 214 ft | 1 kts | 158° |
| 2026-05-04 15:15 | 28.19100 | 113.21776 | 214 ft | 6 kts | 168° |
| 2026-05-04 15:16 | 28.18835 | 113.21798 | 216 ft | 30 kts | 177° |
| 2026-05-04 15:16 | 28.18594 | 113.21809 | 217 ft | 38 kts | 176° |
| 2026-05-04 15:16 | 28.18063 | 113.21842 | 214 ft | 37 kts | 177° |
| 2026-05-04 15:17 | 28.17810 | 113.21857 | 220 ft | 36 kts | 176° |
| 2026-05-04 15:17 | 28.17744 | 113.21928 | 218 ft | 0 kts | 82° |
| 2026-05-04 15:19 | 28.17744 | 113.21929 | 215 ft | 1 kts | 84° |
| 2026-05-04 15:19 | 28.17744 | 113.21983 | 216 ft | 10 kts | 83° |
| 2026-05-04 15:19 | 28.17828 | 113.22043 | 215 ft | 1 kts | 358° |
| 2026-05-04 15:23 | 28.17843 | 113.22042 | 222 ft | 14 kts | 357° |
| 2026-05-04 15:23 | 28.18213 | 113.22020 | 215 ft | 89 kts | 357° |
| 2026-05-04 15:23 | 28.19032 | 113.21970 | 220 ft | 144 kts | 357° |
| 2026-05-04 15:23 | 28.20189 | 113.21900 | 280 ft | 182 kts | 357° |
| 2026-05-04 15:24 | 28.22772 | 113.21733 | 1538 ft | 185 kts | 359° |
| 2026-05-04 15:24 | 28.25477 | 113.21573 | 2419 ft | 214 kts | 358° |
| 2026-05-04 15:25 | 28.27016 | 113.21514 | 2799 ft | 228 kts | 6° |
| 2026-05-04 15:25 | 28.28507 | 113.22124 | 3395 ft | 230 kts | 40° |
| 2026-05-04 15:25 | 28.29531 | 113.23495 | 4130 ft | 230 kts | 58° |
| 2026-05-04 15:26 | 28.31331 | 113.26532 | 5650 ft | 236 kts | 57° |
| 2026-05-04 15:26 | 28.32251 | 113.28089 | 6445 ft | 238 kts | 56° |
| 2026-05-04 15:26 | 28.34139 | 113.31281 | 7698 ft | 257 kts | 56° |
| 2026-05-04 15:27 | 28.35183 | 113.33047 | 8058 ft | 280 kts | 56° |
| 2026-05-04 15:27 | 28.37419 | 113.36831 | 9538 ft | 293 kts | 56° |
| 2026-05-04 15:28 | 28.39773 | 113.40822 | 10519 ft | 324 kts | 56° |
| 2026-05-04 15:28 | 28.41075 | 113.43031 | 10738 ft | 348 kts | 56° |
| 2026-05-04 15:28 | 28.44685 | 113.47077 | 11053 ft | 388 kts | 25° |
| 2026-05-04 15:29 | 28.47292 | 113.47937 | 11542 ft | 395 kts | 6° |
| 2026-05-04 15:30 | 28.58455 | 113.48776 | 14000 ft | 409 kts | 3° |
| 2026-05-04 15:30 | 28.67054 | 113.49388 | 15561 ft | 419 kts | 2° |
| 2026-05-04 15:31 | 28.72916 | 113.49814 | 16560 ft | 426 kts | 2° |
| 2026-05-04 15:31 | 28.75883 | 113.50030 | 17061 ft | 429 kts | 2° |
| 2026-05-04 15:32 | 28.84912 | 113.50671 | 18509 ft | 438 kts | 1° |
| 2026-05-04 15:32 | 28.91030 | 113.51106 | 19323 ft | 444 kts | 1° |
| 2026-05-04 15:33 | 28.97232 | 113.51551 | 19823 ft | 447 kts | 1° |
| 2026-05-04 15:34 | 29.06342 | 113.52225 | 19847 ft | 446 kts | 1° |
| 2026-05-04 15:34 | 29.09438 | 113.52450 | 19846 ft | 446 kts | 1° |
| 2026-05-04 15:34 | 29.15432 | 113.52876 | 19848 ft | 445 kts | 1° |
| 2026-05-04 15:35 | 29.21620 | 113.53316 | 19841 ft | 445 kts | 1° |
| 2026-05-04 15:35 | 29.24711 | 113.53537 | 19839 ft | 445 kts | 1° |
| 2026-05-04 15:35 | 29.27803 | 113.53759 | 19841 ft | 445 kts | 1° |
| 2026-05-04 15:36 | 29.33986 | 113.54253 | 19845 ft | 445 kts | 2° |
| 2026-05-04 15:36 | 29.37073 | 113.54528 | 19836 ft | 445 kts | 2° |
| 2026-05-04 15:36 | 29.40155 | 113.54806 | 19833 ft | 445 kts | 2° |
| 2026-05-04 15:37 | 29.43238 | 113.55083 | 19827 ft | 445 kts | 2° |
| 2026-05-04 15:37 | 29.46342 | 113.55358 | 20137 ft | 448 kts | 1° |
| 2026-05-04 15:37 | 29.49455 | 113.55630 | 20546 ft | 450 kts | 1° |
| 2026-05-04 15:37 | 29.52586 | 113.55901 | 20937 ft | 452 kts | 1° |
| 2026-05-04 15:38 | 29.55739 | 113.56175 | 21315 ft | 455 kts | 1° |
| 2026-05-04 15:38 | 29.58906 | 113.56450 | 21680 ft | 458 kts | 1° |
| 2026-05-04 15:38 | 29.62092 | 113.56724 | 22049 ft | 460 kts | 1° |
| 2026-05-04 15:38 | 29.65296 | 113.57001 | 22400 ft | 463 kts | 0° |
| 2026-05-04 15:39 | 29.68516 | 113.57278 | 22742 ft | 465 kts | 0° |
| 2026-05-04 15:39 | 29.71754 | 113.57558 | 23078 ft | 468 kts | 0° |
| 2026-05-04 15:39 | 29.78278 | 113.58131 | 23699 ft | 473 kts | 0° |
| 2026-05-04 15:40 | 29.81569 | 113.58421 | 23968 ft | 475 kts | 0° |
| 2026-05-04 15:40 | 29.84872 | 113.58710 | 24238 ft | 477 kts | 0° |
| 2026-05-04 15:40 | 29.88142 | 113.58996 | 24503 ft | 479 kts | 0° |
| 2026-05-04 15:40 | 29.91470 | 113.59301 | 24762 ft | 482 kts | 2° |
| 2026-05-04 15:41 | 29.94778 | 113.60003 | 25104 ft | 486 kts | 11° |
| 2026-05-04 15:41 | 29.97990 | 113.61282 | 25484 ft | 490 kts | 19° |
| 2026-05-04 15:41 | 30.01120 | 113.62844 | 25855 ft | 490 kts | 19° |
| 2026-05-04 15:41 | 30.04237 | 113.64406 | 26251 ft | 489 kts | 19° |
| 2026-05-04 15:42 | 30.07405 | 113.65995 | 26645 ft | 488 kts | 19° |
| 2026-05-04 15:42 | 30.10482 | 113.67534 | 27038 ft | 487 kts | 18° |
| 2026-05-04 15:42 | 30.13589 | 113.69083 | 27429 ft | 487 kts | 18° |
| 2026-05-04 15:42 | 30.16700 | 113.70633 | 27823 ft | 486 kts | 18° |
| 2026-05-04 15:43 | 30.19808 | 113.72182 | 28217 ft | 486 kts | 18° |
| 2026-05-04 15:43 | 30.22913 | 113.73732 | 28609 ft | 485 kts | 18° |
| 2026-05-04 15:43 | 30.26009 | 113.75281 | 28989 ft | 485 kts | 18° |
| 2026-05-04 15:43 | 30.29112 | 113.76837 | 29367 ft | 485 kts | 18° |
| 2026-05-04 15:44 | 30.32215 | 113.78392 | 29766 ft | 485 kts | 17° |
| 2026-05-04 15:44 | 30.35312 | 113.79943 | 30154 ft | 484 kts | 17° |
| 2026-05-04 15:44 | 30.38404 | 113.81495 | 30484 ft | 484 kts | 17° |
| 2026-05-04 15:44 | 30.41490 | 113.83046 | 30809 ft | 483 kts | 17° |
| 2026-05-04 15:45 | 30.44579 | 113.84599 | 31056 ft | 484 kts | 17° |
| 2026-05-04 15:45 | 30.50799 | 113.87719 | 31120 ft | 490 kts | 18° |
| 2026-05-04 15:46 | 30.57059 | 113.90878 | 31120 ft | 491 kts | 18° |
| 2026-05-04 15:46 | 30.62969 | 113.94969 | 31122 ft | 503 kts | 36° |
| 2026-05-04 15:47 | 30.67600 | 114.01135 | 31131 ft | 513 kts | 54° |
| 2026-05-04 15:47 | 30.71456 | 114.08123 | 31136 ft | 513 kts | 54° |
| 2026-05-04 15:48 | 30.75309 | 114.15111 | 31126 ft | 513 kts | 54° |
| 2026-05-04 15:48 | 30.80141 | 114.26228 | 31138 ft | 517 kts | 67° |
| 2026-05-04 15:49 | 30.82700 | 114.34000 | 31133 ft | 517 kts | 67° |
| 2026-05-04 15:49 | 30.85219 | 114.41829 | 31134 ft | 516 kts | 68° |
| 2026-05-04 15:50 | 30.87723 | 114.49665 | 31133 ft | 516 kts | 68° |
| 2026-05-04 15:50 | 30.90263 | 114.57485 | 31134 ft | 516 kts | 67° |
| 2026-05-04 15:51 | 30.92819 | 114.65295 | 31136 ft | 516 kts | 67° |
| 2026-05-04 15:51 | 30.95359 | 114.73126 | 31140 ft | 516 kts | 68° |
| 2026-05-04 15:52 | 30.97870 | 114.80943 | 31136 ft | 515 kts | 68° |
| 2026-05-04 15:52 | 31.00381 | 114.88777 | 31137 ft | 515 kts | 68° |
| 2026-05-04 15:53 | 31.02873 | 114.96552 | 31142 ft | 515 kts | 68° |
| 2026-05-04 15:53 | 31.05377 | 115.04377 | 31137 ft | 515 kts | 68° |
| 2026-05-04 15:54 | 31.07458 | 115.10888 | 31142 ft | 515 kts | 68° |
| 2026-05-04 15:54 | 31.09955 | 115.18722 | 31147 ft | 515 kts | 68° |
| 2026-05-04 15:55 | 31.12442 | 115.26560 | 31155 ft | 515 kts | 68° |
| 2026-05-04 15:55 | 31.14935 | 115.34396 | 31158 ft | 514 kts | 68° |
| 2026-05-04 15:56 | 31.17472 | 115.42200 | 31162 ft | 514 kts | 67° |
| 2026-05-04 15:56 | 31.20017 | 115.49999 | 31164 ft | 514 kts | 67° |
| 2026-05-04 15:57 | 31.22541 | 115.57815 | 31173 ft | 514 kts | 68° |
| 2026-05-04 15:57 | 31.25046 | 115.65644 | 31171 ft | 514 kts | 68° |
| 2026-05-04 15:58 | 31.27545 | 115.73462 | 31166 ft | 514 kts | 68° |
| 2026-05-04 15:58 | 31.30049 | 115.81276 | 31162 ft | 513 kts | 68° |
| 2026-05-04 15:59 | 31.32548 | 115.89100 | 31157 ft | 514 kts | 68° |
| 2026-05-04 15:59 | 31.35067 | 115.96919 | 31157 ft | 514 kts | 67° |
| 2026-05-04 16:00 | 31.37606 | 116.04718 | 31257 ft | 519 kts | 67° |
| 2026-05-04 16:00 | 31.38894 | 116.08684 | 31154 ft | 520 kts | 67° |
| 2026-05-04 16:00 | 31.40164 | 116.12618 | 31140 ft | 515 kts | 68° |
| 2026-05-04 16:01 | 31.42711 | 116.20529 | 31126 ft | 527 kts | 68° |
| 2026-05-04 16:01 | 31.45326 | 116.28665 | 31236 ft | 537 kts | 68° |
| 2026-05-04 16:02 | 31.47985 | 116.36942 | 31364 ft | 545 kts | 68° |
| 2026-05-04 16:02 | 31.50635 | 116.45198 | 32386 ft | 527 kts | 67° |
| 2026-05-04 16:03 | 31.51884 | 116.49107 | 33010 ft | 495 kts | 67° |
| 2026-05-04 16:03 | 31.53016 | 116.52682 | 33578 ft | 466 kts | 67° |
| 2026-05-04 16:03 | 31.54110 | 116.56160 | 33506 ft | 452 kts | 67° |
| 2026-05-04 16:03 | 31.55223 | 116.59694 | 32213 ft | 475 kts | 67° |
| 2026-05-04 16:04 | 31.56412 | 116.63441 | 31550 ft | 501 kts | 68° |
| 2026-05-04 16:04 | 31.58910 | 116.71277 | 31106 ft | 518 kts | 68° |
| 2026-05-04 16:04 | 31.60181 | 116.75221 | 31137 ft | 515 kts | 67° |
| 2026-05-04 16:05 | 31.62720 | 116.83065 | 31135 ft | 514 kts | 67° |
| 2026-05-04 16:06 | 31.66530 | 116.94838 | 31131 ft | 514 kts | 67° |
| 2026-05-04 16:07 | 31.71508 | 117.10593 | 31132 ft | 515 kts | 68° |
| 2026-05-04 16:08 | 31.76256 | 117.26475 | 31122 ft | 516 kts | 74° |
| 2026-05-04 16:08 | 31.76898 | 117.38997 | 31117 ft | 517 kts | 95° |
| 2026-05-04 16:09 | 31.76315 | 117.47431 | 31111 ft | 518 kts | 95° |
| 2026-05-04 16:10 | 31.75149 | 117.64357 | 31113 ft | 521 kts | 96° |
| 2026-05-04 16:11 | 31.73932 | 117.81349 | 31120 ft | 523 kts | 96° |
| 2026-05-04 16:12 | 31.72065 | 118.06893 | 31119 ft | 526 kts | 96° |
| 2026-05-04 16:13 | 31.70849 | 118.24042 | 31124 ft | 528 kts | 96° |
| 2026-05-04 16:14 | 31.69655 | 118.41278 | 31127 ft | 530 kts | 96° |
| 2026-05-04 16:16 | 31.68100 | 118.62886 | 31130 ft | 533 kts | 96° |
| 2026-05-04 16:17 | 31.66497 | 118.84523 | 31135 ft | 535 kts | 97° |
| 2026-05-04 16:18 | 31.65191 | 119.01944 | 31135 ft | 536 kts | 97° |
| 2026-05-04 16:19 | 31.64028 | 119.23868 | 31127 ft | 539 kts | 94° |
| 2026-05-04 16:20 | 31.63099 | 119.45809 | 31131 ft | 540 kts | 95° |
| 2026-05-04 16:22 | 31.61993 | 119.67824 | 31132 ft | 541 kts | 95° |
| 2026-05-04 16:23 | 31.60796 | 119.94284 | 31140 ft | 544 kts | 95° |
| 2026-05-04 16:25 | 31.59507 | 120.20904 | 31152 ft | 546 kts | 95° |
| 2026-05-04 16:26 | 31.57124 | 120.38246 | 29370 ft | 533 kts | 114° |
| 2026-05-04 16:26 | 31.53419 | 120.50625 | 26538 ft | 541 kts | 112° |
| 2026-05-04 16:27 | 31.50981 | 120.58877 | 24423 ft | 539 kts | 111° |
| 2026-05-04 16:28 | 31.47373 | 120.71084 | 22037 ft | 517 kts | 111° |
| 2026-05-04 16:28 | 31.43879 | 120.82756 | 19778 ft | 496 kts | 111° |
| 2026-05-04 16:29 | 31.39264 | 120.97514 | 16946 ft | 471 kts | 111° |
| 2026-05-04 16:30 | 31.36019 | 121.08156 | 14822 ft | 456 kts | 110° |
| 2026-05-04 16:31 | 31.33916 | 121.15123 | 13441 ft | 446 kts | 109° |
| 2026-05-04 16:31 | 31.30907 | 121.25184 | 11295 ft | 429 kts | 108° |
| 2026-05-04 16:32 | 31.28081 | 121.34548 | 10459 ft | 384 kts | 108° |
| 2026-05-04 16:33 | 31.26363 | 121.40200 | 10130 ft | 355 kts | 108° |
| 2026-05-04 16:33 | 31.24715 | 121.45616 | 8992 ft | 354 kts | 108° |
| 2026-05-04 16:34 | 31.23139 | 121.50928 | 8546 ft | 330 kts | 101° |
| 2026-05-04 16:34 | 31.22950 | 121.53520 | 8402 ft | 313 kts | 82° |
| 2026-05-04 16:35 | 31.24961 | 121.60423 | 7307 ft | 289 kts | 44° |
| 2026-05-04 16:35 | 31.30128 | 121.60940 | 6366 ft | 257 kts | 340° |
| 2026-05-04 16:36 | 31.31809 | 121.60280 | 6059 ft | 252 kts | 340° |
| 2026-05-04 16:36 | 31.35075 | 121.59015 | 5483 ft | 242 kts | 341° |
| 2026-05-04 16:37 | 31.38218 | 121.58026 | 5156 ft | 225 kts | 1° |
| 2026-05-04 16:37 | 31.39664 | 121.58606 | 5049 ft | 224 kts | 33° |
| 2026-05-04 16:37 | 31.40969 | 121.61944 | 4384 ft | 235 kts | 75° |
| 2026-05-04 16:38 | 31.41658 | 121.65713 | 3738 ft | 238 kts | 76° |
| 2026-05-04 16:39 | 31.42097 | 121.71189 | 3323 ft | 217 kts | 123° |
| 2026-05-04 16:39 | 31.39621 | 121.72861 | 2921 ft | 210 kts | 164° |
| 2026-05-04 16:40 | 31.36831 | 121.73840 | 2502 ft | 209 kts | 166° |
| 2026-05-04 16:40 | 31.34051 | 121.74820 | 2101 ft | 206 kts | 165° |
| 2026-05-04 16:41 | 31.31506 | 121.75761 | 1945 ft | 177 kts | 164° |
| 2026-05-04 16:41 | 31.28342 | 121.76957 | 1950 ft | 153 kts | 164° |
| 2026-05-04 16:42 | 31.25311 | 121.78103 | 1876 ft | 153 kts | 164° |
| 2026-05-04 16:43 | 31.23637 | 121.78736 | 1616 ft | 149 kts | 165° |
| 2026-05-04 16:43 | 31.21705 | 121.79467 | 1214 ft | 143 kts | 165° |
| 2026-05-04 16:43 | 31.20767 | 121.79821 | 1025 ft | 141 kts | 163° |
| 2026-05-04 16:44 | 31.17139 | 121.81241 | 267 ft | 135 kts | 162° |
| 2026-05-04 16:45 | 31.15348 | 121.81879 | 24 ft | 135 kts | 162° |
| 2026-05-04 16:46 | 31.12090 | 121.83265 | 1551 ft | 181 kts | 161° |
| 2026-05-04 16:46 | 31.09776 | 121.84269 | 2763 ft | 188 kts | 161° |
| 2026-05-04 16:47 | 31.07589 | 121.86345 | 3427 ft | 231 kts | 107° |
| 2026-05-04 16:47 | 31.07799 | 121.90113 | 3888 ft | 237 kts | 66° |
| 2026-05-04 16:48 | 31.09611 | 121.95457 | 3890 ft | 237 kts | 68° |
| 2026-05-04 16:48 | 31.10138 | 121.97266 | 3890 ft | 236 kts | 68° |
| 2026-05-04 16:49 | 31.11235 | 122.00887 | 3890 ft | 234 kts | 57° |
| 2026-05-04 16:49 | 31.13816 | 122.02739 | 3893 ft | 222 kts | 1° |
| 2026-05-04 16:50 | 31.16734 | 122.01828 | 3896 ft | 220 kts | 334° |
| 2026-05-04 16:50 | 31.19471 | 122.00256 | 3894 ft | 219 kts | 333° |
| 2026-05-04 16:51 | 31.22288 | 121.98887 | 3887 ft | 220 kts | 341° |
| 2026-05-04 16:51 | 31.23755 | 121.98374 | 3896 ft | 220 kts | 343° |
| 2026-05-04 16:51 | 31.26680 | 121.97403 | 3889 ft | 219 kts | 343° |
| 2026-05-04 16:52 | 31.29567 | 121.96458 | 3885 ft | 204 kts | 343° |
| 2026-05-04 16:52 | 31.30880 | 121.96001 | 3883 ft | 191 kts | 341° |
| 2026-05-04 16:53 | 31.33298 | 121.95115 | 3895 ft | 178 kts | 341° |
| 2026-05-04 16:53 | 31.36851 | 121.93820 | 3902 ft | 184 kts | 341° |
| 2026-05-04 16:54 | 31.38084 | 121.93368 | 3900 ft | 187 kts | 341° |
| 2026-05-04 16:55 | 31.42752 | 121.91666 | 3895 ft | 167 kts | 341° |
| 2026-05-04 16:55 | 31.44966 | 121.90861 | 3895 ft | 166 kts | 341° |
| 2026-05-04 16:56 | 31.46904 | 121.89616 | 3897 ft | 165 kts | 296° |
| 2026-05-04 16:56 | 31.46308 | 121.85552 | 3892 ft | 176 kts | 258° |
| 2026-05-04 16:57 | 31.45953 | 121.84191 | 3785 ft | 174 kts | 258° |
| 2026-05-04 16:57 | 31.45239 | 121.81363 | 3067 ft | 192 kts | 257° |
| 2026-05-04 16:58 | 31.44129 | 121.77039 | 2680 ft | 178 kts | 256° |
| 2026-05-04 16:58 | 31.43788 | 121.75711 | 2562 ft | 165 kts | 256° |
| 2026-05-04 16:59 | 31.43157 | 121.73270 | 2116 ft | 155 kts | 252° |
| 2026-05-04 17:00 | 31.39291 | 121.72812 | 1889 ft | 159 kts | 165° |
| 2026-05-04 17:00 | 31.36144 | 121.74001 | 1883 ft | 159 kts | 164° |
| 2026-05-04 17:01 | 31.34041 | 121.74797 | 1894 ft | 157 kts | 163° |
| 2026-05-04 17:01 | 31.31974 | 121.75581 | 1883 ft | 155 kts | 164° |
| 2026-05-04 17:02 | 31.29931 | 121.76354 | 1883 ft | 155 kts | 164° |
| 2026-05-04 17:02 | 31.27862 | 121.77137 | 1883 ft | 155 kts | 164° |
| 2026-05-04 17:03 | 31.26838 | 121.77525 | 1881 ft | 155 kts | 164° |
| 2026-05-04 17:03 | 31.25808 | 121.77915 | 1885 ft | 155 kts | 164° |
| 2026-05-04 17:03 | 31.23747 | 121.78694 | 1620 ft | 155 kts | 163° |
| 2026-05-04 17:04 | 31.21712 | 121.79464 | 1231 ft | 152 kts | 163° |
| 2026-05-04 17:04 | 31.19721 | 121.80216 | 824 ft | 148 kts | 162° |
| 2026-05-04 17:05 | 31.17818 | 121.80935 | 432 ft | 140 kts | 162° |
| 2026-05-04 17:05 | 31.15985 | 121.81627 | 66 ft | 137 kts | 162° |
| 2026-05-04 17:06 | 31.14514 | 121.82191 | 22 ft | 70 kts | 162° |
| 2026-05-04 17:06 | 31.14213 | 121.82158 | 23 ft | 19 kts | 209° |
| 2026-05-04 17:07 | 31.14192 | 121.82145 | 23 ft | 1 kts | 207° |
| 2026-05-04 17:07 | 31.14168 | 121.82136 | 25 ft | 7 kts | 189° |
| 2026-05-04 17:07 | 31.14115 | 121.82135 | 23 ft | 5 kts | 178° |
| 2026-05-04 17:07 | 31.14088 | 121.82139 | 23 ft | 3 kts | 167° |
| 2026-05-04 17:08 | 31.14070 | 121.82145 | 24 ft | 2 kts | 162° |
| 2026-05-04 17:08 | 31.13955 | 121.82187 | 23 ft | 0 kts | 162° |
| 2026-05-04 17:08 | 31.13943 | 121.82192 | 23 ft | 9 kts | 162° |
| 2026-05-04 17:09 | 31.13869 | 121.82220 | 24 ft | 11 kts | 163° |
| 2026-05-04 17:09 | 31.13794 | 121.82249 | 23 ft | 12 kts | 162° |
| 2026-05-04 17:09 | 31.13717 | 121.82276 | 23 ft | 12 kts | 170° |
| 2026-05-04 17:10 | 31.13645 | 121.82162 | 25 ft | 8 kts | 251° |
| 2026-05-04 17:10 | 31.13543 | 121.81789 | 22 ft | 20 kts | 255° |
| 2026-05-04 17:11 | 31.13495 | 121.81632 | 24 ft | 22 kts | 249° |
| 2026-05-04 17:11 | 31.13518 | 121.81535 | 23 ft | 12 kts | 317° |
| 2026-05-04 17:11 | 31.13540 | 121.81446 | 23 ft | 6 kts | 244° |
| 2026-05-04 17:12 | 31.13531 | 121.81418 | 23 ft | 0 kts | 253° |